Time;durP1;ratioP1;P1;durP2;ratioP2;P2;SDS_P1;SDS_P2;PMS_P1;PMS_P2;Temp;Humidity;BMP_temperature;BMP_pressure;BME280_temperature;BME280_humidity;BME280_pressure;Samples;Min_cycle;Max_cycle;Signal;HPM_P1;HPM_P2
2022/01/02 00:00:06;;;;;;;7.13;3.37;;;5.40;99.90;;;;;;5072896;28;20204;-64
2022/01/02 00:02:33;;;;;;;4.67;3.03;;;5.40;99.90;;;;;;5072110;28;20178;-64
2022/01/02 00:05:09;;;;;;;6.83;3.03;;;5.50;99.90;;;;;;5072898;28;20176;-65
2022/01/02 00:07:43;;;;;;;5.73;3.53;;;5.50;99.90;;;;;;5072694;28;20196;-65
2022/01/02 00:10:11;;;;;;;5.80;3.47;;;5.50;99.90;;;;;;5082357;28;20184;-65
2022/01/02 00:12:42;;;;;;;5.97;3.73;;;5.40;99.90;;;;;;5092572;28;20185;-64
2022/01/02 00:15:11;;;;;;;8.67;3.57;;;5.40;99.90;;;;;;5092564;28;20584;-64
2022/01/02 00:17:38;;;;;;;8.77;3.57;;;5.30;99.90;;;;;;5092704;28;20220;-64
2022/01/02 00:20:11;;;;;;;7.93;4.17;;;5.30;99.90;;;;;;5092973;28;20273;-64
2022/01/02 00:22:41;;;;;;;5.67;3.87;;;5.20;99.90;;;;;;5092622;28;20207;-64
2022/01/02 00:25:24;;;;;;;7.80;4.20;;;5.30;99.90;;;;;;5092715;28;20614;-63
2022/01/02 00:27:51;;;;;;;5.93;4.07;;;5.20;99.90;;;;;;5092817;28;20230;-63
2022/01/02 00:30:17;;;;;;;6.77;3.77;;;5.30;99.90;;;;;;5092318;28;20274;-64
2022/01/02 00:32:43;;;;;;;7.73;3.47;;;5.30;99.90;;;;;;5092391;28;20636;-63
2022/01/02 00:35:09;;;;;;;6.40;3.37;;;5.30;99.90;;;;;;5092819;28;20171;-64
2022/01/02 00:37:35;;;;;;;5.77;3.27;;;5.30;99.90;;;;;;5092369;28;20237;-64
2022/01/02 00:40:01;;;;;;;6.87;3.00;;;5.20;99.90;;;;;;5092500;28;20582;-64
2022/01/02 00:42:41;;;;;;;7.57;2.60;;;5.20;99.90;;;;;;5092328;28;20207;-64
2022/01/02 00:45:16;;;;;;;5.53;2.60;;;5.20;99.90;;;;;;5092421;28;20248;-64
2022/01/02 00:47:49;;;;;;;4.47;2.27;;;5.20;99.90;;;;;;5092251;28;20672;-64
2022/01/02 00:50:20;;;;;;;4.80;2.73;;;5.20;99.90;;;;;;5086874;28;20174;-64
2022/01/02 00:52:48;;;;;;;5.00;2.70;;;5.10;99.90;;;;;;5072246;28;20206;-64
2022/01/02 00:55:19;;;;;;;4.63;2.13;;;5.10;99.90;;;;;;5072080;28;20190;-64
2022/01/02 00:57:58;;;;;;;5.70;2.50;;;5.00;99.90;;;;;;5072333;28;20169;-64
2022/01/02 01:00:24;;;;;;;5.43;2.13;;;5.00;99.90;;;;;;5071523;28;20249;-64
2022/01/02 01:02:53;;;;;;;4.90;2.50;;;4.90;99.90;;;;;;5072017;28;20238;-64
2022/01/02 01:05:24;;;;;;;3.93;1.97;;;4.90;99.90;;;;;;5071836;28;20265;-65
2022/01/02 01:07:56;;;;;;;4.40;2.17;;;4.80;99.90;;;;;;5072169;28;20343;-63
2022/01/02 01:10:24;;;;;;;4.57;2.00;;;4.80;99.90;;;;;;5083167;28;20726;-63
2022/01/02 01:12:56;;;;;;;3.10;1.80;;;4.70;99.90;;;;;;5092209;28;20641;-63
2022/01/02 01:15:23;;;;;;;4.20;2.10;;;4.70;99.90;;;;;;5091589;28;20668;-63
2022/01/02 01:17:52;;;;;;;5.03;1.93;;;4.60;99.90;;;;;;5091923;28;20255;-63
2022/01/02 01:20:19;;;;;;;5.03;1.80;;;4.60;99.90;;;;;;5092028;28;20243;-63
2022/01/02 01:22:45;;;;;;;3.43;1.80;;;4.50;99.90;;;;;;5092199;28;20189;-63
2022/01/02 01:25:16;;;;;;;5.17;2.20;;;4.40;99.90;;;;;;5092294;28;20213;-64
2022/01/02 01:27:43;;;;;;;4.90;2.23;;;4.40;99.90;;;;;;5096105;28;20597;-63
2022/01/02 01:30:10;;;;;;;4.50;2.20;;;4.30;99.90;;;;;;5095912;28;20181;-63
2022/01/02 01:32:37;;;;;;;4.83;2.60;;;4.30;99.90;;;;;;5095902;28;20192;-63
2022/01/02 01:35:04;;;;;;;4.17;2.60;;;4.20;99.90;;;;;;5096218;28;20181;-64
2022/01/02 01:37:30;;;;;;;6.60;2.10;;;4.10;99.90;;;;;;5095851;28;20174;-63
2022/01/02 01:39:56;;;;;;;4.97;2.53;;;4.10;99.90;;;;;;5095660;28;20280;-63
2022/01/02 01:42:42;;;;;;;7.63;3.07;;;4.00;99.90;;;;;;5095833;28;20277;-63
2022/01/02 01:47:56;;;;;;;6.53;3.00;;;3.90;99.90;;;;;;5096028;28;20207;-63
2022/01/02 01:50:26;;;;;;;8.80;3.50;;;3.80;99.90;;;;;;5088924;28;20280;-62
2022/01/02 01:52:52;;;;;;;6.87;3.77;;;3.70;99.90;;;;;;5075353;28;20178;-63
2022/01/02 01:55:18;;;;;;;7.77;3.60;;;3.70;99.90;;;;;;5075402;28;20235;-64
2022/01/02 01:57:44;;;;;;;8.93;3.53;;;3.60;99.90;;;;;;5075392;28;20189;-62
2022/01/02 02:00:14;;;;;;;9.17;3.43;;;3.60;99.90;;;;;;5074956;28;20194;-62
2022/01/02 02:02:41;;;;;;;8.27;4.00;;;3.60;99.90;;;;;;5075028;28;20210;-63
2022/01/02 02:05:07;;;;;;;8.43;3.87;;;3.50;99.90;;;;;;5075266;28;20593;-63
2022/01/02 02:07:44;;;;;;;6.47;3.73;;;3.50;99.90;;;;;;5074707;28;20186;-64
2022/01/02 02:10:18;;;;;;;9.67;4.13;;;3.50;99.90;;;;;;5084867;28;20629;-64
2022/01/02 02:12:47;;;;;;;8.23;3.33;;;3.50;99.90;;;;;;5095341;28;20188;-64
2022/01/02 02:15:16;;;;;;;8.33;3.33;;;3.50;99.90;;;;;;5093335;28;20230;-64
2022/01/02 02:17:47;;;;;;;8.60;3.83;;;3.40;99.90;;;;;;5094863;28;20207;-64
2022/01/02 02:20:23;;;;;;;6.00;3.40;;;3.40;99.90;;;;;;5095421;28;20181;-64
2022/01/02 02:22:53;;;;;;;6.43;3.60;;;3.30;99.90;;;;;;5095334;28;20204;-63
2022/01/02 02:25:25;;;;;;;5.67;3.10;;;3.30;99.90;;;;;;5095129;28;20639;-64
2022/01/02 02:27:52;;;;;;;5.47;2.80;;;3.30;99.90;;;;;;5095269;28;20685;-63
2022/01/02 02:30:19;;;;;;;12.23;3.40;;;3.30;99.90;;;;;;5094691;28;20193;-64
2022/01/02 02:32:45;;;;;;;8.87;2.77;;;3.30;99.90;;;;;;5094742;28;20658;-63
2022/01/02 02:35:11;;;;;;;8.00;3.47;;;3.20;99.90;;;;;;5094982;28;20178;-63
2022/01/02 02:37:42;;;;;;;7.30;3.10;;;3.20;99.90;;;;;;5094121;28;20179;-63
2022/01/02 02:40:10;;;;;;;6.63;2.93;;;3.20;99.90;;;;;;5094798;28;20608;-64
2022/01/02 02:42:46;;;;;;;8.07;3.10;;;3.30;99.90;;;;;;5094267;28;20722;-61
2022/01/02 02:51:03;;;;;;;5.13;2.97;;;3.30;99.90;;;;;;5082446;28;20210;-62
2022/01/02 02:53:29;;;;;;;7.00;2.53;;;3.20;99.90;;;;;;5074167;28;20184;-63
2022/01/02 02:55:57;;;;;;;6.87;2.93;;;3.10;99.90;;;;;;5074142;28;20186;-63
2022/01/02 03:00:59;;;;;;;5.07;2.50;;;3.00;99.90;;;;;;5074028;28;20217;-63
2022/01/02 03:03:25;;;;;;;7.73;2.90;;;3.00;99.90;;;;;;5073803;28;20181;-63
2022/01/02 03:05:52;;;;;;;4.93;2.60;;;3.00;99.90;;;;;;5074065;28;20181;-63
2022/01/02 03:08:18;;;;;;;3.67;2.33;;;3.00;99.90;;;;;;5074086;28;20277;-63
2022/01/02 03:10:44;;;;;;;4.77;2.03;;;2.90;99.90;;;;;;5088766;28;20684;-61
2022/01/02 03:13:10;;;;;;;5.67;2.33;;;2.90;99.90;;;;;;5093756;28;20202;-62
2022/01/02 03:15:35;;;;;;;6.07;2.87;;;2.90;99.90;;;;;;5093725;28;20218;-63
2022/01/02 03:18:01;;;;;;;4.77;2.77;;;2.90;99.90;;;;;;5094032;28;20215;-62
2022/01/02 03:20:27;;;;;;;6.00;2.70;;;2.90;99.90;;;;;;5093805;28;20202;-63
2022/01/02 03:22:53;;;;;;;8.53;2.90;;;2.90;99.90;;;;;;5093967;28;20177;-63
2022/01/02 03:25:19;;;;;;;7.93;2.97;;;2.90;99.90;;;;;;5093995;28;20528;-63
2022/01/02 03:27:45;;;;;;;5.37;2.43;;;2.90;99.90;;;;;;5093650;28;20285;-64
2022/01/02 03:30:12;;;;;;;6.73;2.90;;;2.90;99.90;;;;;;5093475;28;20593;-63
2022/01/02 03:32:39;;;;;;;5.20;2.70;;;2.80;99.90;;;;;;5093453;28;20185;-63
2022/01/02 03:35:06;;;;;;;8.00;2.83;;;2.80;99.90;;;;;;5093704;28;20178;-63
2022/01/02 03:37:33;;;;;;;5.53;2.53;;;2.70;99.90;;;;;;5093368;28;20526;-64
2022/01/02 03:40:00;;;;;;;5.87;2.80;;;2.60;99.90;;;;;;5093627;28;20753;-62
2022/01/02 03:42:26;;;;;;;5.53;3.10;;;2.60;99.90;;;;;;5093188;28;20189;-62
2022/01/02 03:44:52;;;;;;;5.73;2.67;;;2.60;99.90;;;;;;5093280;28;20230;-63
2022/01/02 03:47:18;;;;;;;6.97;3.10;;;2.50;99.90;;;;;;5093465;28;20178;-63
2022/01/02 03:49:44;;;;;;;5.23;3.27;;;2.50;99.90;;;;;;5091028;28;20180;-63
2022/01/02 03:52:10;;;;;;;5.40;2.90;;;2.40;99.90;;;;;;5073055;28;20184;-63
2022/01/02 03:54:36;;;;;;;5.07;2.87;;;2.40;99.90;;;;;;5072890;28;20228;-63
2022/01/02 03:57:01;;;;;;;6.97;2.73;;;2.30;99.90;;;;;;5073157;28;20185;-63
2022/01/02 03:59:27;;;;;;;4.60;2.67;;;2.40;99.90;;;;;;5071160;28;20217;-63
2022/01/02 04:01:53;;;;;;;7.70;2.90;;;2.40;99.90;;;;;;5073149;28;20186;-62
2022/01/02 04:04:19;;;;;;;5.10;2.30;;;2.40;99.90;;;;;;5072685;28;20210;-63
2022/01/02 04:06:44;;;;;;;5.00;2.37;;;2.50;99.90;;;;;;5071032;28;20183;-63
2022/01/02 04:09:10;;;;;;;5.23;2.60;;;2.60;99.90;;;;;;5074268;28;20185;-63
2022/01/02 04:11:36;;;;;;;7.83;2.60;;;2.70;99.90;;;;;;5092795;28;20259;-63
2022/01/02 04:14:02;;;;;;;4.20;2.13;;;2.70;99.90;;;;;;5091898;28;20573;-64
2022/01/02 04:16:28;;;;;;;5.50;2.60;;;2.70;99.90;;;;;;5092834;28;20184;-63
2022/01/02 04:18:53;;;;;;;5.17;2.80;;;2.80;99.90;;;;;;5092487;28;20540;-64
2022/01/02 04:21:19;;;;;;;6.13;3.70;;;2.90;99.90;;;;;;5092740;28;20181;-62
2022/01/02 04:23:45;;;;;;;6.67;2.33;;;2.90;99.90;;;;;;5092355;28;20211;-63
2022/01/02 04:26:11;;;;;;;6.20;2.80;;;3.00;99.90;;;;;;5091552;28;20230;-63
2022/01/02 04:28:36;;;;;;;5.23;2.43;;;3.10;99.90;;;;;;5092378;28;20173;-63
2022/01/02 04:31:02;;;;;;;4.17;2.20;;;3.20;99.90;;;;;;5092261;28;20192;-64
2022/01/02 04:33:28;;;;;;;7.03;3.50;;;3.20;99.90;;;;;;5092609;28;20251;-63
2022/01/02 04:35:54;;;;;;;4.30;2.30;;;3.20;99.90;;;;;;5092303;28;20188;-62
2022/01/02 04:38:20;;;;;;;5.70;2.57;;;3.20;99.90;;;;;;5092378;28;20251;-63
2022/01/02 04:40:48;;;;;;;3.70;2.27;;;3.20;99.90;;;;;;5092340;28;20181;-64
2022/01/02 04:43:14;;;;;;;12.73;3.43;;;3.30;99.90;;;;;;5092190;28;20182;-64
2022/01/02 04:45:39;;;;;;;7.63;2.80;;;3.30;99.90;;;;;;5092322;28;20234;-63
2022/01/02 04:48:05;;;;;;;4.07;2.60;;;3.30;99.90;;;;;;5092338;28;20571;-63
2022/01/02 04:50:31;;;;;;;4.33;2.03;;;3.30;99.90;;;;;;5084084;28;20210;-63
2022/01/02 04:52:57;;;;;;;4.90;2.77;;;3.30;99.90;;;;;;5072281;28;20206;-63
2022/01/02 04:55:23;;;;;;;10.53;3.23;;;3.30;99.90;;;;;;5072313;28;20827;-64
2022/01/02 04:57:48;;;;;;;5.47;2.80;;;3.30;99.90;;;;;;5071602;28;20189;-63
2022/01/02 05:00:14;;;;;;;6.53;2.80;;;3.20;99.90;;;;;;5071406;28;20196;-63
2022/01/02 05:02:40;;;;;;;5.13;2.50;;;3.20;99.90;;;;;;5071840;28;20193;-64
2022/01/02 05:05:06;;;;;;;5.17;2.70;;;3.20;99.90;;;;;;5072241;28;20182;-64
2022/01/02 05:07:32;;;;;;;6.83;3.17;;;3.30;99.90;;;;;;5071440;28;20298;-63
2022/01/02 05:09:59;;;;;;;5.70;2.80;;;3.30;99.90;;;;;;5079913;28;20273;-63
2022/01/02 05:12:25;;;;;;;5.30;2.60;;;3.30;99.90;;;;;;5091407;28;20185;-64
2022/01/02 05:14:51;;;;;;;12.23;2.70;;;3.30;99.90;;;;;;5090877;28;20236;-63
2022/01/02 05:17:17;;;;;;;5.03;2.70;;;3.30;99.90;;;;;;5091424;28;20173;-64
2022/01/02 05:19:42;;;;;;;4.73;2.37;;;3.30;99.90;;;;;;5091438;28;20210;-63
2022/01/02 05:22:08;;;;;;;6.97;2.70;;;3.30;99.90;;;;;;5091797;28;20280;-64
2022/01/02 05:24:34;;;;;;;4.60;2.43;;;3.30;99.90;;;;;;5091865;28;20218;-63
2022/01/02 05:26:59;;;;;;;4.13;2.30;;;3.30;99.90;;;;;;5091750;28;20176;-64
2022/01/02 05:29:26;;;;;;;4.73;2.60;;;3.30;99.90;;;;;;5091265;28;20212;-64
2022/01/02 05:31:51;;;;;;;3.13;1.93;;;3.30;99.90;;;;;;5092002;28;20209;-63
2022/01/02 05:34:17;;;;;;;4.53;2.50;;;3.30;99.90;;;;;;5092055;28;20208;-62
2022/01/02 05:36:48;;;;;;;6.07;2.87;;;3.30;99.90;;;;;;5091641;28;20204;-64
2022/01/02 05:39:18;;;;;;;5.20;2.20;;;3.30;99.90;;;;;;5090172;28;20212;-64
2022/01/02 05:41:46;;;;;;;5.57;2.27;;;3.30;99.90;;;;;;5091606;28;20187;-63
2022/01/02 05:44:12;;;;;;;8.73;2.60;;;3.30;99.90;;;;;;5091642;28;20185;-64
2022/01/02 05:46:38;;;;;;;6.20;2.80;;;3.30;99.90;;;;;;5091749;28;20189;-63
2022/01/02 05:49:03;;;;;;;5.43;2.53;;;3.30;99.90;;;;;;5091692;28;20667;-63
2022/01/02 05:51:29;;;;;;;6.73;3.10;;;3.30;99.90;;;;;;5075431;28;20182;-62
2022/01/02 05:53:55;;;;;;;8.67;3.00;;;3.20;99.90;;;;;;5071728;28;20193;-64
2022/01/02 05:56:20;;;;;;;4.77;2.37;;;3.20;99.90;;;;;;5072316;28;20648;-65
2022/01/02 05:58:46;;;;;;;7.20;2.40;;;3.20;99.90;;;;;;5071176;28;20210;-64
2022/01/02 06:01:12;;;;;;;7.27;2.83;;;3.20;99.90;;;;;;5071670;28;20182;-63
2022/01/02 06:03:37;;;;;;;6.90;2.30;;;3.10;99.90;;;;;;5071263;28;20694;-63
2022/01/02 06:06:04;;;;;;;9.47;2.67;;;3.10;99.90;;;;;;5071761;28;20174;-64
2022/01/02 06:08:30;;;;;;;5.03;2.77;;;3.10;99.90;;;;;;5071230;28;20185;-63
2022/01/02 06:10:56;;;;;;;7.00;2.40;;;3.10;99.90;;;;;;5087682;28;20184;-63
2022/01/02 06:13:22;;;;;;;3.83;2.10;;;3.10;99.90;;;;;;5094866;28;20178;-64
2022/01/02 06:15:48;;;;;;;5.70;2.87;;;3.10;99.90;;;;;;5095276;28;20233;-64
2022/01/02 06:18:14;;;;;;;7.20;2.57;;;3.10;99.90;;;;;;5095010;28;20606;-63
2022/01/02 06:20:40;;;;;;;6.43;2.50;;;3.10;99.90;;;;;;5089075;28;20228;-63
2022/01/02 06:23:05;;;;;;;6.43;2.53;;;3.20;99.90;;;;;;5074918;28;20178;-63
2022/01/02 06:25:31;;;;;;;5.90;2.77;;;3.20;99.90;;;;;;5075319;28;20546;-63
2022/01/02 06:27:57;;;;;;;7.57;2.40;;;3.20;99.90;;;;;;5074727;28;20216;-66
2022/01/02 06:30:23;;;;;;;6.20;2.43;;;3.30;99.90;;;;;;5074247;28;20193;-64
2022/01/02 06:32:54;;;;;;;5.80;2.47;;;3.20;99.90;;;;;;5074506;28;20185;-64
2022/01/02 06:35:25;;;;;;;5.37;2.47;;;3.20;99.90;;;;;;5074702;28;20183;-63
2022/01/02 06:37:51;;;;;;;6.47;2.83;;;3.30;99.90;;;;;;5074483;28;20173;-63
2022/01/02 06:40:17;;;;;;;6.47;2.93;;;3.30;99.90;;;;;;5074541;28;20195;-64
2022/01/02 06:42:43;;;;;;;7.27;2.87;;;3.30;99.90;;;;;;5074126;28;20209;-62
2022/01/02 06:45:09;;;;;;;6.90;3.47;;;3.30;99.90;;;;;;5073946;28;20179;-64
2022/01/02 06:47:35;;;;;;;8.97;3.40;;;3.30;99.90;;;;;;5074009;28;20182;-64
2022/01/02 06:50:00;;;;;;;9.27;3.30;;;3.40;99.90;;;;;;5077702;28;20178;-64
2022/01/02 06:52:26;;;;;;;9.33;3.80;;;3.50;99.90;;;;;;5092769;28;20218;-64
2022/01/02 06:54:54;;;;;;;6.97;3.70;;;3.50;99.90;;;;;;5094077;28;20227;-62
2022/01/02 06:57:21;;;;;;;7.63;3.83;;;3.50;99.90;;;;;;5094094;28;20584;-63
2022/01/02 06:59:50;;;;;;;6.23;3.70;;;3.60;99.90;;;;;;5093802;28;20202;-63
2022/01/02 07:02:16;;;;;;;5.67;3.30;;;3.70;99.90;;;;;;5094337;28;20180;-64
2022/01/02 07:04:42;;;;;;;7.83;3.00;;;3.70;99.90;;;;;;5094196;28;20175;-64
2022/01/02 07:07:08;;;;;;;7.90;3.60;;;3.70;99.90;;;;;;5094265;28;20186;-63
2022/01/02 07:09:34;;;;;;;7.97;3.33;;;3.70;99.90;;;;;;5093853;28;20578;-64
2022/01/02 07:12:01;;;;;;;7.77;3.40;;;3.70;99.90;;;;;;5094121;28;20198;-63
2022/01/02 07:14:27;;;;;;;6.83;3.13;;;3.60;99.90;;;;;;5093677;28;20574;-64
2022/01/02 07:16:58;;;;;;;7.10;3.60;;;3.50;99.90;;;;;;5093616;28;20182;-63
2022/01/02 07:19:24;;;;;;;6.80;3.27;;;3.50;99.90;;;;;;5093655;28;20665;-63
2022/01/02 07:21:50;;;;;;;8.40;4.07;;;3.40;99.90;;;;;;5078539;28;20305;-63
2022/01/02 07:24:16;;;;;;;10.23;4.50;;;3.40;99.90;;;;;;5073129;28;20175;-64
2022/01/02 07:26:42;;;;;;;10.80;4.70;;;3.40;99.90;;;;;;5072712;28;20205;-63
2022/01/02 07:29:08;;;;;;;10.77;5.10;;;3.40;99.90;;;;;;5079078;28;20177;-65
2022/01/02 07:31:35;;;;;;;5.73;3.73;;;3.40;99.90;;;;;;5093242;28;20276;-65
2022/01/02 07:34:00;;;;;;;14.33;4.90;;;3.30;99.90;;;;;;5093153;28;20175;-63
2022/01/02 07:36:26;;;;;;;11.87;5.73;;;3.30;99.90;;;;;;5093015;28;20175;-63
2022/01/02 07:38:52;;;;;;;9.60;5.30;;;3.30;99.90;;;;;;5093494;28;20213;-63
2022/01/02 07:41:19;;;;;;;14.30;6.10;;;3.30;99.90;;;;;;5093120;28;20186;-64
2022/01/02 07:43:44;;;;;;;10.73;4.80;;;3.40;99.90;;;;;;5092833;28;20220;-64
2022/01/02 07:46:11;;;;;;;12.50;5.03;;;3.40;99.90;;;;;;5093409;28;20185;-64
2022/01/02 07:48:36;;;;;;;11.70;5.90;;;3.50;99.90;;;;;;5091411;28;20187;-63
2022/01/02 07:51:02;;;;;;;10.50;5.83;;;3.60;99.90;;;;;;5089106;28;20356;-64
2022/01/02 07:53:28;;;;;;;12.93;6.83;;;3.70;99.90;;;;;;5093191;28;20529;-64
2022/01/02 07:55:53;;;;;;;13.83;5.90;;;3.80;99.90;;;;;;5092247;28;20203;-66
2022/01/02 07:58:19;;;;;;;10.07;5.57;;;3.90;99.90;;;;;;5092472;28;20213;-64
2022/01/02 08:00:45;;;;;;;12.10;4.87;;;4.00;99.90;;;;;;5092520;28;20190;-65
2022/01/02 08:03:11;;;;;;;10.40;5.70;;;4.10;99.90;;;;;;5093091;28;20187;-65
2022/01/02 08:05:36;;;;;;;11.60;5.70;;;4.10;99.90;;;;;;5092719;28;20259;-64
2022/01/02 08:08:02;;;;;;;10.43;5.53;;;4.30;99.90;;;;;;5093113;28;20261;-64
2022/01/02 08:10:28;;;;;;;10.30;5.20;;;4.40;99.90;;;;;;5092832;28;20241;-64
2022/01/02 08:12:55;;;;;;;13.07;5.20;;;4.50;99.90;;;;;;5092165;28;20182;-65
2022/01/02 08:15:21;;;;;;;10.20;4.60;;;4.70;99.90;;;;;;5092495;28;20411;-63
2022/01/02 08:17:47;;;;;;;10.60;5.20;;;4.90;99.90;;;;;;5092451;28;20225;-63
2022/01/02 08:20:13;;;;;;;9.40;5.33;;;5.00;99.90;;;;;;5073881;28;20189;-64
2022/01/02 08:22:40;;;;;;;8.00;4.63;;;5.20;99.90;;;;;;5092884;28;20227;-64
2022/01/02 08:25:06;;;;;;;10.40;4.43;;;5.20;99.90;;;;;;5092490;28;20645;-67
2022/01/02 08:27:32;;;;;;;10.77;4.30;;;5.30;99.90;;;;;;5090972;28;20625;-67
2022/01/02 08:29:58;;;;;;;10.60;4.80;;;5.30;99.90;;;;;;5092327;28;20192;-64
2022/01/02 08:32:24;;;;;;;8.97;4.60;;;5.40;99.90;;;;;;5092441;28;20196;-64
2022/01/02 08:34:51;;;;;;;8.80;5.00;;;5.30;99.90;;;;;;5091717;28;20172;-64
2022/01/02 08:37:17;;;;;;;9.47;5.03;;;5.40;99.90;;;;;;5091710;28;20704;-65
2022/01/02 08:39:44;;;;;;;8.83;4.70;;;5.40;99.90;;;;;;5091657;28;20251;-65
2022/01/02 08:42:12;;;;;;;9.23;5.40;;;5.40;99.90;;;;;;5092025;28;20234;-64
2022/01/02 08:44:41;;;;;;;11.47;4.90;;;5.40;99.90;;;;;;5092027;28;20621;-64
2022/01/02 08:47:07;;;;;;;8.80;4.90;;;5.60;99.90;;;;;;5091975;28;20193;-65
2022/01/02 08:49:33;;;;;;;10.67;4.43;;;5.80;99.90;;;;;;5090432;28;20196;-67
2022/01/02 08:51:59;;;;;;;8.87;4.70;;;5.90;99.90;;;;;;5087628;28;20188;-64
2022/01/02 08:54:25;;;;;;;8.30;3.97;;;6.00;99.90;;;;;;5092049;28;20532;-64
2022/01/02 08:56:51;;;;;;;8.77;4.30;;;6.00;99.90;;;;;;5091621;28;20617;-66
2022/01/02 08:59:17;;;;;;;10.93;4.80;;;6.20;99.90;;;;;;5091350;28;20240;-65
2022/01/02 09:01:44;;;;;;;9.03;4.40;;;6.30;99.90;;;;;;5091783;28;20189;-65
2022/01/02 09:04:10;;;;;;;8.23;4.47;;;6.20;99.90;;;;;;5091732;28;20219;-64
2022/01/02 09:06:35;;;;;;;9.97;4.63;;;6.40;99.90;;;;;;5091715;28;20189;-65
2022/01/02 09:09:02;;;;;;;11.27;4.30;;;6.50;99.90;;;;;;5091503;28;20299;-64
2022/01/02 09:11:28;;;;;;;6.70;4.20;;;6.50;99.90;;;;;;5091715;28;20192;-66
2022/01/02 09:13:54;;;;;;;9.40;4.13;;;6.50;99.90;;;;;;5090847;28;20235;-64
2022/01/02 09:16:19;;;;;;;7.80;4.53;;;6.50;99.90;;;;;;5091661;28;20174;-66
2022/01/02 09:18:45;;;;;;;8.33;4.10;;;6.40;99.90;;;;;;5090740;28;20220;-65
2022/01/02 09:21:11;;;;;;;12.10;4.80;;;6.10;99.90;;;;;;5091261;28;20216;-65
2022/01/02 09:23:37;;;;;;;6.97;4.23;;;6.00;99.90;;;;;;5090101;28;20177;-65
2022/01/02 09:26:03;;;;;;;7.40;4.47;;;5.80;99.90;;;;;;5091342;28;20694;-64
2022/01/02 09:28:28;;;;;;;9.20;4.20;;;5.60;99.90;;;;;;5091025;28;20185;-65
2022/01/02 09:30:54;;;;;;;11.87;5.33;;;5.50;99.90;;;;;;5091375;28;20503;-64
2022/01/02 09:33:20;;;;;;;10.40;4.43;;;5.50;99.90;;;;;;5091646;28;20177;-66
2022/01/02 09:35:46;;;;;;;9.17;3.70;;;5.70;99.90;;;;;;5089938;28;20223;-64
2022/01/02 09:38:11;;;;;;;8.57;4.67;;;6.00;99.90;;;;;;5091295;28;20257;-65
2022/01/02 09:40:37;;;;;;;6.17;3.50;;;6.20;99.90;;;;;;5091547;28;20194;-65
2022/01/02 09:43:04;;;;;;;6.53;3.70;;;6.40;99.90;;;;;;5090892;28;20629;-64
2022/01/02 09:45:35;;;;;;;12.00;4.43;;;6.40;99.90;;;;;;5089996;28;20175;-64
2022/01/02 09:48:04;;;;;;;13.47;5.43;;;6.50;99.90;;;;;;5094535;28;20185;-63
2022/01/02 09:50:31;;;;;;;7.83;4.47;;;6.70;99.90;;;;;;5090951;28;20190;-66
2022/01/02 09:52:58;;;;;;;8.70;3.80;;;6.70;99.90;;;;;;5094957;28;20555;-64
2022/01/02 09:55:23;;;;;;;8.13;4.57;;;6.90;99.90;;;;;;5095177;28;20232;-64
2022/01/02 09:57:52;;;;;;;7.93;4.50;;;6.90;99.90;;;;;;5094408;28;20262;-63
2022/01/02 10:00:19;;;;;;;11.67;4.93;;;6.90;99.90;;;;;;5095185;28;20203;-64
2022/01/02 10:02:58;;;;;;;9.10;4.50;;;6.70;99.90;;;;;;5094897;28;20689;-65
2022/01/02 10:05:26;;;;;;;10.80;5.83;;;6.90;99.90;;;;;;5095279;28;20191;-66
2022/01/02 10:07:53;;;;;;;9.83;4.60;;;7.20;99.90;;;;;;5094618;28;20195;-65
2022/01/02 10:10:19;;;;;;;11.23;4.80;;;7.40;99.90;;;;;;5094880;28;20187;-65
2022/01/02 10:12:45;;;;;;;11.47;5.00;;;7.50;99.90;;;;;;5092394;28;20189;-66
2022/01/02 10:15:20;;;;;;;9.93;5.00;;;7.20;99.90;;;;;;5094364;28;20227;-64
2022/01/02 10:18:00;;;;;;;10.47;4.70;;;7.00;99.90;;;;;;5094172;28;20253;-66
2022/01/02 10:20:29;;;;;;;10.03;5.00;;;7.10;99.90;;;;;;5093027;28;20221;-65
2022/01/02 10:23:03;;;;;;;11.20;5.17;;;7.30;99.90;;;;;;5094445;28;20539;-64
2022/01/02 10:25:37;;;;;;;9.60;4.77;;;7.50;99.90;;;;;;5094543;28;20755;-65
2022/01/02 10:28:17;;;;;;;8.67;4.87;;;7.60;99.90;;;;;;5094009;28;20637;-64
2022/01/02 10:30:48;;;;;;;8.03;4.47;;;7.30;99.90;;;;;;5094265;28;20165;-65
2022/01/02 10:33:14;;;;;;;12.50;5.30;;;7.20;99.90;;;;;;5094190;28;20186;-65
2022/01/02 10:35:41;;;;;;;10.80;4.67;;;7.40;99.90;;;;;;5094126;28;20533;-65
2022/01/02 10:38:13;;;;;;;11.50;5.20;;;7.60;99.90;;;;;;5093263;28;20183;-65
2022/01/02 10:40:40;;;;;;;15.13;5.50;;;7.70;99.90;;;;;;5094026;28;20516;-64
2022/01/02 10:43:11;;;;;;;8.17;3.80;;;7.80;99.90;;;;;;5093277;28;20185;-69
2022/01/02 10:45:47;;;;;;;17.23;7.57;;;7.80;99.90;;;;;;5093985;28;20183;-65
2022/01/02 10:48:16;;;;;;;19.10;8.37;;;7.50;99.90;;;;;;5094146;28;20660;-65
2022/01/02 10:51:11;;;;;;;16.93;9.53;;;7.10;99.90;;;;;;5089645;28;20182;-65
2022/01/02 10:53:50;;;;;;;23.63;10.43;;;6.90;99.90;;;;;;5093610;28;20171;-65
2022/01/02 10:56:16;;;;;;;17.10;9.07;;;6.90;99.90;;;;;;5093625;28;20163;-64
2022/01/02 10:58:46;;;;;;;13.27;8.30;;;6.80;99.90;;;;;;5093515;28;20207;-66
2022/01/02 11:01:12;;;;;;;16.60;8.97;;;6.90;99.90;;;;;;5094251;28;20210;-65
2022/01/02 11:03:38;;;;;;;15.65;9.23;;;6.90;99.90;;;;;;5093258;28;20484;-65
2022/01/02 11:06:09;;;;;;;19.07;9.93;;;7.00;99.90;;;;;;5094225;28;20177;-65
2022/01/02 11:08:36;;;;;;;18.50;9.57;;;7.20;99.90;;;;;;5094080;28;20172;-66
2022/01/02 11:11:05;;;;;;;16.13;7.73;;;7.20;99.90;;;;;;5093447;28;20611;-66
2022/01/02 11:13:33;;;;;;;15.67;7.90;;;7.40;99.90;;;;;;5093175;28;20236;-64
2022/01/02 11:16:01;;;;;;;18.50;8.40;;;7.50;99.90;;;;;;5093276;28;20257;-66
2022/01/02 11:18:31;;;;;;;15.70;8.87;;;7.80;99.90;;;;;;5093725;28;20218;-65
2022/01/02 11:20:57;;;;;;;21.33;9.37;;;7.90;99.90;;;;;;5093070;28;20190;-65
2022/01/02 11:23:49;;;;;;;16.43;8.77;;;7.60;99.90;;;;;;5093572;28;20297;-65
2022/01/02 11:26:54;;;;;;;21.93;10.67;;;7.30;99.90;;;;;;5092616;28;20591;-64
2022/01/02 11:29:31;;;;;;;18.10;9.87;;;7.10;99.90;;;;;;5091855;28;20498;-65
2022/01/02 11:31:57;;;;;;;31.47;9.87;;;6.90;99.90;;;;;;5092865;28;20253;-65
2022/01/02 11:34:29;;;;;;;24.27;9.67;;;6.70;99.90;;;;;;5092782;28;20264;-66
2022/01/02 11:37:13;;;;;;;19.40;8.53;;;6.60;99.90;;;;;;5093191;28;20166;-64
2022/01/02 11:39:57;;;;;;;22.70;8.87;;;6.40;99.90;;;;;;5092556;28;20295;-66
2022/01/02 11:42:36;;;;;;;22.57;11.27;;;6.30;99.90;;;;;;5092613;28;20186;-66
2022/01/02 11:45:07;;;;;;;20.67;9.47;;;6.40;99.90;;;;;;5092572;28;20861;-64
2022/01/02 11:47:46;;;;;;;15.87;9.47;;;6.40;99.90;;;;;;5093186;28;20173;-65
2022/01/02 11:50:30;;;;;;;20.23;10.00;;;6.40;99.90;;;;;;5089361;28;20322;-65
2022/01/02 11:53:14;;;;;;;19.37;9.27;;;6.50;99.90;;;;;;5092660;28;20648;-64
2022/01/02 11:55:41;;;;;;;14.13;8.60;;;6.60;99.90;;;;;;5092694;28;20203;-66
2022/01/02 11:58:07;;;;;;;16.53;8.60;;;6.50;99.90;;;;;;5092599;28;20181;-65
2022/01/02 12:00:35;;;;;;;17.30;9.73;;;6.50;99.90;;;;;;5091076;28;20278;-65
2022/01/02 12:03:01;;;;;;;20.93;9.57;;;6.60;99.90;;;;;;5092605;28;20629;-64
2022/01/02 12:05:27;;;;;;;16.63;9.00;;;6.60;99.90;;;;;;5092536;28;20196;-64
2022/01/02 12:07:53;;;;;;;19.10;9.77;;;6.60;99.90;;;;;;5092533;28;20679;-65
2022/01/02 12:10:20;;;;;;;16.60;9.40;;;6.60;99.90;;;;;;5092079;28;20181;-64
2022/01/02 12:13:09;;;;;;;18.37;10.10;;;6.60;99.90;;;;;;5092126;28;20181;-65
2022/01/02 12:15:38;;;;;;;22.23;9.73;;;6.70;99.90;;;;;;5092399;28;20234;-66
2022/01/02 12:18:07;;;;;;;30.70;18.83;;;6.80;99.90;;;;;;5092514;28;20210;-65
2022/01/02 12:20:52;;;;;;;25.00;11.33;;;6.90;99.90;;;;;;5090285;28;20209;-64
2022/01/02 12:23:30;;;;;;;28.07;10.30;;;7.10;99.90;;;;;;5092599;28;20255;-64
2022/01/02 12:25:59;;;;;;;18.97;9.33;;;7.20;99.90;;;;;;5092157;28;20344;-65
2022/01/02 12:28:25;;;;;;;16.73;8.80;;;7.30;99.90;;;;;;5092399;28;20187;-63
2022/01/02 12:30:52;;;;;;;23.07;9.17;;;7.50;99.90;;;;;;5071373;28;20248;-66
2022/01/02 12:33:25;;;;;;;22.00;8.47;;;7.80;99.90;;;;;;5070904;28;20182;-64
2022/01/02 12:35:51;;;;;;;22.67;10.67;;;8.30;99.90;;;;;;5071723;28;20179;-63
2022/01/02 12:38:17;;;;;;;15.17;8.23;;;8.80;99.90;;;;;;5071772;28;20216;-64
2022/01/02 12:40:43;;;;;;;14.53;7.83;;;9.00;99.90;;;;;;5071223;28;20258;-65
2022/01/02 12:43:10;;;;;;;14.87;8.37;;;8.70;99.90;;;;;;5071676;28;20209;-65
2022/01/02 12:45:36;;;;;;;13.03;7.73;;;8.20;99.90;;;;;;5071878;28;20242;-66
2022/01/02 12:48:02;;;;;;;13.07;7.90;;;7.90;99.90;;;;;;5070958;28;20511;-65
2022/01/02 12:50:30;;;;;;;14.77;8.70;;;7.60;99.90;;;;;;5078812;28;20279;-65
2022/01/02 12:52:57;;;;;;;17.43;8.50;;;7.50;99.90;;;;;;5089911;28;20184;-64
2022/01/02 12:55:25;;;;;;;11.47;6.63;;;7.50;99.90;;;;;;5091288;28;20202;-65
2022/01/02 12:58:07;;;;;;;12.70;5.77;;;7.40;99.90;;;;;;5089719;28;20178;-64
2022/01/02 13:00:33;;;;;;;13.67;6.70;;;7.20;99.90;;;;;;5091524;28;20189;-65
2022/01/02 13:02:59;;;;;;;14.77;7.77;;;7.20;99.90;;;;;;5091092;28;20643;-63
2022/01/02 13:05:25;;;;;;;13.23;6.83;;;7.00;99.90;;;;;;5091272;28;20272;-65
2022/01/02 13:08:01;;;;;;;13.60;7.40;;;6.90;99.90;;;;;;5091608;28;20177;-65